createdAt,value
2023-03-19T00:03:49.321Z,22.85
2023-03-19T00:09:11.849Z,24.48
2023-03-19T00:14:33.709Z,24.77
2023-03-19T00:19:55.589Z,25.35
2023-03-19T00:25:17.511Z,27.08
2023-03-19T00:30:39.494Z,23.52
2023-03-19T00:36:01.408Z,29.00
2023-03-19T00:41:23.549Z,26.92
2023-03-19T00:46:46.083Z,26.35
2023-03-19T00:52:08.021Z,25.30
2023-03-19T00:57:29.923Z,26.25
2023-03-19T01:02:51.805Z,24.77
2023-03-19T01:08:13.803Z,22.27
2023-03-19T01:13:35.923Z,28.35
2023-03-19T01:18:57.859Z,25.20
2023-03-19T01:24:19.736Z,22.98
2023-03-19T01:29:41.585Z,23.52
2023-03-19T01:35:03.594Z,22.15
2023-03-19T01:40:25.445Z,24.45
2023-03-19T01:45:51.384Z,24.23
2023-03-19T01:51:17.776Z,22.98
2023-03-19T01:56:41.928Z,22.40
2023-03-19T02:02:13.937Z,24.70
2023-03-19T02:07:38.850Z,24.67
2023-03-19T02:13:00.744Z,25.55
2023-03-19T02:18:25.009Z,21.20
2023-03-19T02:23:58.372Z,26.20
2023-03-19T02:29:20.377Z,24.55
2023-03-19T02:34:43.743Z,21.95
2023-03-19T02:40:19.668Z,23.38
2023-03-19T02:45:41.787Z,23.88
2023-03-19T02:51:05.033Z,24.88
2023-03-19T02:56:26.872Z,24.77
2023-03-19T03:01:48.862Z,28.30
2023-03-19T03:07:11.040Z,23.38
2023-03-19T03:12:32.902Z,24.90
2023-03-19T03:17:54.843Z,24.00
2023-03-19T03:23:16.814Z,23.77
2023-03-19T03:28:38.647Z,28.92
2023-03-19T03:34:01.259Z,23.85
2023-03-19T03:39:23.153Z,25.35
2023-03-19T03:44:45.001Z,23.40
2023-03-19T03:50:07.284Z,23.40
2023-03-19T03:55:30.391Z,25.17
2023-03-19T04:00:52.245Z,21.98
2023-03-19T04:06:17.193Z,23.15
2023-03-19T04:11:41.055Z,25.40
2023-03-19T04:17:03.103Z,23.02
2023-03-19T04:22:25.051Z,22.70
2023-03-19T04:27:46.924Z,24.70
2023-03-19T04:33:09.594Z,22.52
2023-03-19T04:38:31.433Z,25.33
2023-03-19T04:43:53.293Z,23.30
2023-03-19T04:49:15.200Z,21.00
2023-03-19T04:54:37.138Z,20.08
2023-03-19T04:59:59.015Z,27.52
2023-03-19T05:05:20.862Z,23.48
2023-03-19T05:10:42.704Z,23.65
2023-03-19T05:16:04.919Z,27.30
2023-03-19T05:21:26.897Z,22.58
2023-03-19T05:26:48.818Z,23.95
2023-03-19T05:32:10.757Z,20.60
2023-03-19T05:37:32.715Z,23.42
2023-03-19T05:42:54.631Z,24.63
2023-03-19T05:48:16.539Z,23.52
2023-03-19T05:53:38.382Z,26.00
2023-03-19T05:59:00.245Z,19.30
2023-03-19T06:04:22.155Z,18.83
2023-03-19T06:09:44.085Z,17.95
2023-03-19T06:15:06.481Z,19.60
2023-03-19T06:20:28.345Z,20.00
2023-03-19T06:25:50.226Z,18.33
2023-03-19T06:31:12.233Z,20.40
2023-03-19T06:36:34.212Z,19.10
2023-03-19T06:41:56.172Z,19.25
2023-03-19T06:47:18.039Z,18.85
2023-03-19T06:52:40.936Z,18.27
2023-03-19T06:58:03.286Z,16.15
2023-03-19T07:03:25.139Z,17.23
2023-03-19T07:08:47.147Z,17.30
2023-03-19T07:14:09.604Z,15.52
2023-03-19T07:19:31.421Z,21.48
2023-03-19T07:24:53.327Z,19.40
2023-03-19T07:30:15.718Z,20.63
2023-03-19T07:35:37.664Z,20.35
2023-03-19T07:41:02.680Z,18.65
2023-03-19T07:46:24.887Z,16.00
2023-03-19T07:51:46.748Z,18.60
2023-03-19T07:57:08.795Z,19.00
2023-03-19T08:02:30.737Z,19.17
2023-03-19T08:07:52.688Z,16.55
2023-03-19T08:13:14.648Z,18.88
2023-03-19T08:18:36.577Z,16.05
2023-03-19T08:23:58.758Z,17.48
2023-03-19T08:29:20.701Z,15.75
2023-03-19T08:34:42.643Z,13.85
2023-03-19T08:40:04.995Z,15.13
2023-03-19T08:45:26.851Z,18.00
2023-03-19T08:51:00.656Z,14.43
2023-03-19T08:56:22.565Z,14.13
2023-03-19T09:01:44.500Z,15.63
2023-03-19T09:07:06.460Z,15.82
2023-03-19T09:12:28.405Z,15.75
2023-03-19T09:17:50.385Z,17.08
2023-03-19T09:23:12.245Z,15.45
2023-03-19T09:28:34.951Z,15.75
2023-03-19T09:33:56.975Z,14.02
2023-03-19T09:39:18.872Z,15.75
2023-03-19T09:44:43.621Z,15.15
2023-03-19T09:50:15.943Z,15.48
2023-03-19T09:55:49.825Z,14.52
2023-03-19T10:01:40.707Z,13.07
2023-03-19T10:07:14.534Z,11.80
2023-03-19T10:12:52.610Z,12.80
2023-03-19T10:18:19.894Z,11.57
2023-03-19T10:23:41.686Z,13.68
2023-03-19T10:29:11.280Z,11.07
2023-03-19T10:34:35.046Z,11.98
2023-03-19T10:39:59.055Z,9.82
2023-03-19T10:45:30.820Z,13.80
2023-03-19T10:51:05.532Z,10.38
2023-03-19T10:56:29.830Z,10.02
2023-03-19T11:02:02.984Z,11.32
2023-03-19T11:07:27.109Z,10.95
2023-03-19T11:12:55.333Z,12.77
2023-03-19T11:18:25.072Z,9.45
2023-03-19T11:23:52.404Z,19.45
2023-03-19T11:29:14.281Z,11.55
2023-03-19T11:34:59.225Z,9.57
2023-03-19T11:40:41.690Z,9.50
2023-03-19T11:46:25.308Z,11.23
2023-03-19T11:52:04.179Z,9.75
2023-03-19T11:58:03.189Z,10.57
2023-03-19T12:03:52.425Z,10.35
2023-03-19T12:09:34.255Z,10.57
2023-03-19T12:15:18.944Z,11.48
2023-03-19T12:20:56.706Z,11.88
2023-03-19T12:26:40.351Z,10.75
2023-03-19T12:32:20.844Z,10.52
2023-03-19T12:37:54.404Z,11.30
2023-03-19T12:43:21.724Z,10.48
2023-03-19T12:49:21.029Z,10.13
2023-03-19T12:54:48.802Z,11.60
2023-03-19T13:00:13.791Z,11.88
2023-03-19T13:05:47.681Z,12.73
2023-03-19T13:11:15.531Z,10.20
2023-03-19T13:16:57.638Z,9.55
2023-03-19T13:22:30.611Z,11.38
2023-03-19T13:27:53.990Z,11.43
2023-03-19T13:33:22.272Z,11.98
2023-03-19T13:38:48.891Z,11.82
2023-03-19T13:44:32.661Z,14.00
2023-03-19T13:50:06.893Z,10.95
2023-03-19T13:55:32.579Z,12.68
2023-03-19T14:00:59.019Z,10.57
2023-03-19T14:06:31.702Z,9.38
2023-03-19T14:11:53.601Z,9.30
2023-03-19T14:17:19.855Z,8.98
2023-03-19T14:22:57.218Z,10.27
2023-03-19T14:28:24.132Z,10.88
2023-03-19T14:33:53.944Z,9.07
2023-03-19T14:39:23.373Z,10.45
2023-03-19T14:45:17.757Z,9.48
2023-03-19T14:50:53.995Z,9.13
2023-03-19T14:56:21.199Z,10.40
2023-03-19T15:01:50.464Z,10.35
2023-03-19T15:07:22.826Z,9.55
2023-03-19T15:13:11.383Z,9.45
2023-03-19T15:18:35.332Z,8.48
2023-03-19T15:23:57.784Z,12.95
2023-03-19T15:29:31.160Z,10.82
2023-03-19T15:34:56.689Z,13.35
2023-03-19T15:40:22.640Z,11.05
2023-03-19T15:45:52.437Z,12.30
2023-03-19T15:51:15.851Z,16.65
2023-03-19T15:56:38.404Z,11.45
2023-03-19T16:02:02.152Z,13.50
2023-03-19T16:07:41.361Z,12.23
2023-03-19T16:13:20.120Z,12.57
2023-03-19T16:18:53.503Z,12.50
2023-03-19T16:24:25.015Z,13.68
2023-03-19T16:29:57.380Z,15.25
2023-03-19T16:35:19.952Z,12.70
2023-03-19T16:40:43.056Z,16.10
2023-03-19T16:46:06.992Z,17.80
2023-03-19T16:51:28.864Z,21.05
2023-03-19T16:56:50.714Z,23.48
2023-03-19T17:02:17.777Z,17.75
2023-03-19T17:07:39.717Z,23.80
2023-03-19T17:13:01.865Z,22.50
2023-03-19T17:18:26.280Z,15.18
2023-03-19T17:23:48.282Z,13.85
2023-03-19T17:29:10.353Z,29.25
2023-03-19T17:34:32.234Z,21.67
2023-03-19T17:39:54.048Z,23.90
2023-03-19T17:45:17.363Z,17.27
2023-03-19T17:50:39.227Z,24.60
2023-03-19T17:56:01.082Z,27.63
2023-03-19T18:01:27.208Z,23.27
2023-03-19T18:06:53.046Z,27.02
2023-03-19T18:12:14.883Z,28.13
2023-03-19T18:17:36.957Z,23.83
2023-03-19T18:22:58.850Z,25.10
2023-03-19T18:28:20.705Z,32.10
2023-03-19T18:33:49.136Z,25.35
2023-03-19T18:39:13.649Z,35.38
2023-03-19T18:44:35.535Z,35.40
2023-03-19T18:49:57.467Z,38.40
2023-03-19T18:55:20.736Z,30.17
2023-03-19T19:00:42.922Z,26.17
2023-03-19T19:06:05.006Z,27.90
2023-03-19T19:11:27.371Z,30.08
2023-03-19T19:16:50.181Z,35.28
2023-03-19T19:22:16.897Z,32.85
2023-03-19T19:33:00.663Z,37.47
2023-03-19T19:38:22.727Z,36.90
2023-03-19T19:43:46.051Z,39.63
2023-03-19T19:49:14.426Z,36.22
2023-03-19T19:54:36.288Z,37.35
2023-03-19T19:59:58.131Z,36.65
2023-03-19T20:05:23.270Z,39.50
2023-03-19T20:10:46.156Z,37.20
2023-03-19T20:16:11.008Z,39.03
2023-03-19T20:21:33.345Z,36.25
2023-03-19T20:26:55.221Z,36.75
2023-03-19T20:32:31.094Z,35.17
2023-03-19T20:37:54.876Z,34.63
2023-03-19T20:43:28.390Z,34.75
2023-03-19T20:48:50.577Z,39.50
2023-03-19T20:54:12.445Z,36.95
2023-03-19T20:59:34.339Z,37.78
2023-03-19T21:04:56.185Z,36.95
2023-03-19T21:10:24.287Z,33.10
2023-03-19T21:15:46.625Z,37.60
2023-03-19T21:21:10.556Z,38.20
2023-03-19T21:26:37.072Z,37.55
2023-03-19T21:31:58.935Z,38.60
2023-03-19T21:37:20.902Z,40.40
2023-03-19T21:42:43.074Z,36.03
2023-03-19T21:48:17.195Z,37.08
2023-03-19T21:53:39.063Z,38.60
2023-03-19T21:59:04.146Z,42.30
2023-03-19T22:04:26.006Z,35.33
2023-03-19T22:09:47.929Z,36.92
2023-03-19T22:15:30.089Z,37.47
2023-03-19T22:20:52.720Z,41.33
2023-03-19T22:26:34.801Z,35.53
2023-03-19T22:31:56.964Z,35.72
2023-03-19T22:37:30.178Z,41.72
2023-03-19T22:42:52.021Z,38.45
2023-03-19T22:48:15.267Z,38.63
2023-03-19T22:53:37.663Z,38.35
2023-03-19T22:58:59.449Z,38.95
2023-03-19T23:04:24.522Z,43.00
2023-03-19T23:09:46.401Z,39.70
2023-03-19T23:15:08.857Z,38.05
2023-03-19T23:20:32.059Z,40.47
2023-03-19T23:25:54.468Z,45.92
2023-03-19T23:31:16.421Z,44.63
2023-03-19T23:36:38.297Z,43.65
2023-03-19T23:42:00.441Z,44.60
2023-03-19T23:47:22.340Z,43.05
2023-03-19T23:52:44.229Z,42.83
2023-03-19T23:58:06.073Z,47.92
